createdAt,value
2023-01-13T00:01:27.556Z,11.46
2023-01-13T00:03:54.680Z,11.44
2023-01-13T00:06:27.918Z,11.44
2023-01-13T00:08:55.332Z,11.43
2023-01-13T00:11:22.969Z,11.43
2023-01-13T00:13:49.980Z,11.50
2023-01-13T00:16:19.089Z,11.47
2023-01-13T00:18:47.329Z,11.49
2023-01-13T00:21:21.505Z,11.42
2023-01-13T00:23:48.977Z,11.48
2023-01-13T00:26:20.110Z,11.38
2023-01-13T00:28:47.103Z,11.41
2023-01-13T00:31:18.512Z,11.42
2023-01-13T00:33:46.643Z,11.46
2023-01-13T00:36:15.699Z,11.42
2023-01-13T00:38:43.188Z,11.41
2023-01-13T00:41:19.963Z,11.22
2023-01-13T00:43:47.940Z,11.46
2023-01-13T00:46:18.783Z,11.47
2023-01-13T00:48:47.098Z,11.44
2023-01-13T00:51:20.437Z,11.49
2023-01-13T00:53:50.675Z,11.52
2023-01-13T00:56:39.836Z,11.51
2023-01-13T00:59:10.941Z,11.57
2023-01-13T01:01:38.424Z,11.51
2023-01-13T01:04:05.882Z,11.56
2023-01-13T01:06:32.882Z,11.66
2023-01-13T01:08:59.823Z,11.63
2023-01-13T01:11:30.893Z,11.64
2023-01-13T01:14:01.263Z,11.48
2023-01-13T01:16:30.724Z,11.60
2023-01-13T01:18:58.090Z,11.60
2023-01-13T01:21:27.032Z,11.64
2023-01-13T01:23:55.079Z,11.62
2023-01-13T01:26:24.978Z,11.65
2023-01-13T01:28:52.635Z,11.69
2023-01-13T01:31:25.399Z,11.67
2023-01-13T01:33:53.813Z,11.61
2023-01-13T01:36:23.215Z,11.64
2023-01-13T01:38:50.593Z,11.52
2023-01-13T01:41:27.253Z,11.61
2023-01-13T01:44:41.468Z,11.65
2023-01-13T01:47:14.859Z,11.73
2023-01-13T01:49:43.468Z,11.77
2023-01-13T01:52:30.634Z,11.76
2023-01-13T01:55:07.236Z,11.70
2023-01-13T01:57:57.367Z,11.74
2023-01-13T02:00:26.990Z,11.70
2023-01-13T02:02:54.547Z,11.69
2023-01-13T02:05:23.299Z,11.69
2023-01-13T02:07:54.090Z,11.66
2023-01-13T02:10:26.091Z,11.58
2023-01-13T02:12:54.668Z,11.65
2023-01-13T02:15:57.896Z,11.69
2023-01-13T02:19:07.065Z,11.79
2023-01-13T02:22:13.922Z,11.80
2023-01-13T02:25:12.371Z,11.71
2023-01-13T02:28:05.331Z,11.72
2023-01-13T02:31:14.991Z,11.60
2023-01-13T02:34:10.474Z,11.72
2023-01-13T02:36:51.408Z,11.80
2023-01-13T02:39:33.704Z,11.76
2023-01-13T02:42:31.993Z,11.69
2023-01-13T02:45:14.613Z,11.72
2023-01-13T02:47:46.336Z,11.63
2023-01-13T02:50:19.250Z,11.69
2023-01-13T02:53:09.684Z,11.76
2023-01-13T02:55:49.839Z,11.68
2023-01-13T02:58:22.986Z,11.74
2023-01-13T03:00:50.333Z,11.69
2023-01-13T03:03:17.306Z,11.51
2023-01-13T03:05:46.855Z,11.73
2023-01-13T03:08:27.642Z,11.60
2023-01-13T03:11:11.185Z,11.73
2023-01-13T03:14:09.644Z,11.69
2023-01-13T03:16:52.498Z,11.63
2023-01-13T03:19:41.029Z,11.63
2023-01-13T03:22:37.073Z,11.79
2023-01-13T03:25:15.739Z,11.73
2023-01-13T03:27:58.050Z,11.77
2023-01-13T03:30:46.805Z,11.74
2023-01-13T03:33:19.935Z,11.77
2023-01-13T03:35:52.971Z,11.69
2023-01-13T03:38:28.617Z,11.68
2023-01-13T03:41:02.417Z,11.71
2023-01-13T03:43:54.691Z,11.66
2023-01-13T03:46:36.006Z,11.71
2023-01-13T03:49:04.543Z,11.75
2023-01-13T03:51:34.197Z,11.72
2023-01-13T03:54:09.000Z,11.77
2023-01-13T03:56:47.321Z,11.68
2023-01-13T03:59:20.367Z,11.59
2023-01-13T04:01:53.255Z,11.61
2023-01-13T04:04:31.691Z,11.65
2023-01-13T04:07:35.618Z,11.62
2023-01-13T04:10:07.357Z,11.66
2023-01-13T04:13:01.228Z,11.63
2023-01-13T04:15:34.273Z,11.66
2023-01-13T04:18:14.349Z,11.64
2023-01-13T04:20:43.521Z,11.67
2023-01-13T04:23:11.197Z,11.63
2023-01-13T04:25:38.051Z,11.46
2023-01-13T04:28:05.045Z,11.62
2023-01-13T04:30:31.949Z,11.46
2023-01-13T04:32:58.746Z,11.58
2023-01-13T04:35:25.711Z,11.64
2023-01-13T04:37:52.562Z,11.58
2023-01-13T04:40:19.457Z,11.52
2023-01-13T04:42:46.497Z,11.52
2023-01-13T04:45:13.758Z,11.68
2023-01-13T04:47:41.869Z,11.61
2023-01-13T04:50:11.344Z,11.62
2023-01-13T04:52:38.931Z,11.58
2023-01-13T04:55:07.923Z,11.63
2023-01-13T04:57:37.817Z,11.51
2023-01-13T05:00:09.427Z,11.62
2023-01-13T05:02:36.227Z,11.57
2023-01-13T05:05:03.082Z,11.60
2023-01-13T05:07:29.956Z,11.55
2023-01-13T05:09:56.768Z,11.64
2023-01-13T05:12:42.393Z,11.65
2023-01-13T05:15:31.838Z,11.73
2023-01-13T05:17:59.156Z,11.66
2023-01-13T05:20:26.360Z,11.63
2023-01-13T05:23:12.340Z,11.58
2023-01-13T05:25:44.094Z,11.70
2023-01-13T05:28:11.193Z,11.72
2023-01-13T05:30:43.829Z,11.60
2023-01-13T05:33:12.065Z,11.80
2023-01-13T05:35:41.211Z,11.87
2023-01-13T05:38:08.669Z,11.85
2023-01-13T05:40:54.031Z,11.85
2023-01-13T05:43:24.652Z,11.85
2023-01-13T05:46:01.731Z,11.93
2023-01-13T05:48:42.615Z,11.75
2023-01-13T05:51:11.943Z,11.83
2023-01-13T05:53:40.876Z,11.83
2023-01-13T05:56:09.453Z,11.74
2023-01-13T05:58:36.380Z,11.89
2023-01-13T06:01:07.347Z,11.84
2023-01-13T06:03:34.512Z,11.70
2023-01-13T06:06:03.816Z,11.73
2023-01-13T06:08:31.748Z,11.82
2023-01-13T06:10:58.704Z,11.72
2023-01-13T06:13:25.697Z,11.84
2023-01-13T06:15:57.569Z,11.88
2023-01-13T06:18:24.915Z,11.80
2023-01-13T06:20:51.678Z,11.79
2023-01-13T06:23:18.963Z,11.67
2023-01-13T06:26:22.794Z,11.82
2023-01-13T06:28:50.423Z,11.87
2023-01-13T06:31:17.413Z,11.79
2023-01-13T06:33:49.965Z,11.77
2023-01-13T06:36:23.036Z,11.87
2023-01-13T06:38:54.131Z,11.78
2023-01-13T06:41:40.290Z,11.84
2023-01-13T06:44:07.174Z,11.81
2023-01-13T06:46:35.055Z,11.60
2023-01-13T06:49:01.892Z,11.70
2023-01-13T06:51:28.641Z,11.86
2023-01-13T06:53:55.421Z,11.71
2023-01-13T06:56:22.177Z,11.64
2023-01-13T06:58:49.006Z,11.73
2023-01-13T07:01:16.012Z,11.68
2023-01-13T07:03:42.927Z,11.74
2023-01-13T07:06:09.692Z,11.83
2023-01-13T07:08:36.487Z,11.74
2023-01-13T07:11:03.547Z,11.79
2023-01-13T07:13:48.713Z,11.75
2023-01-13T07:16:15.597Z,11.72
2023-01-13T07:18:42.436Z,11.69
2023-01-13T07:21:13.183Z,11.69
2023-01-13T07:23:41.754Z,11.67
2023-01-13T07:26:10.474Z,11.64
2023-01-13T07:28:38.131Z,11.71
2023-01-13T07:31:05.846Z,11.69
2023-01-13T07:33:32.972Z,11.74
2023-01-13T07:36:05.479Z,11.84
2023-01-13T07:38:33.923Z,11.70
2023-01-13T07:41:22.045Z,11.74
2023-01-13T07:43:48.939Z,11.59
2023-01-13T07:46:16.257Z,11.68
2023-01-13T07:48:43.425Z,11.66
2023-01-13T07:51:12.217Z,11.64
2023-01-13T07:53:39.390Z,11.52
2023-01-13T07:56:08.025Z,11.54
2023-01-13T07:58:36.860Z,11.63
2023-01-13T08:01:12.346Z,11.73
2023-01-13T08:03:40.423Z,11.70
2023-01-13T08:06:07.760Z,11.69
2023-01-13T08:08:34.703Z,11.83
2023-01-13T08:11:07.215Z,11.91
2023-01-13T08:13:34.000Z,11.66
2023-01-13T08:16:10.956Z,11.59
2023-01-13T08:18:38.901Z,11.62
2023-01-13T08:21:12.122Z,11.69
2023-01-13T08:23:40.188Z,11.74
2023-01-13T08:26:10.850Z,11.70
2023-01-13T08:28:37.987Z,11.60
2023-01-13T08:31:08.974Z,11.64
2023-01-13T08:33:35.944Z,11.60
2023-01-13T08:36:05.705Z,11.81
2023-01-13T08:38:32.973Z,11.57
2023-01-13T08:40:59.943Z,11.71
2023-01-13T08:43:28.286Z,11.71
2023-01-13T08:46:01.524Z,11.81
2023-01-13T08:48:31.286Z,11.76
2023-01-13T08:51:06.903Z,11.69
2023-01-13T08:53:34.004Z,11.64
2023-01-13T08:56:00.954Z,11.61
2023-01-13T08:58:27.927Z,11.64
2023-01-13T09:00:54.887Z,11.53
2023-01-13T09:03:21.709Z,11.57
2023-01-13T09:05:48.501Z,11.52
2023-01-13T09:08:15.268Z,11.49
2023-01-13T09:10:42.080Z,11.48
2023-01-13T09:13:13.561Z,11.53
2023-01-13T09:15:44.066Z,11.38
2023-01-13T09:18:11.855Z,11.50
2023-01-13T09:20:39.097Z,11.47
2023-01-13T09:23:09.832Z,11.44
2023-01-13T09:25:37.267Z,11.44
2023-01-13T09:28:08.222Z,11.47
2023-01-13T09:30:36.672Z,11.38
2023-01-13T09:33:22.001Z,11.42
2023-01-13T09:35:48.805Z,11.55
2023-01-13T09:38:15.639Z,11.31
2023-01-13T09:40:43.813Z,11.37
2023-01-13T09:43:56.297Z,11.45
2023-01-13T09:46:47.081Z,11.46
2023-01-13T09:49:24.573Z,11.40
2023-01-13T09:52:19.859Z,11.43
2023-01-13T09:55:10.840Z,11.36
2023-01-13T09:57:39.818Z,11.27
2023-01-13T10:00:25.041Z,11.37
2023-01-13T10:03:27.841Z,11.48
2023-01-13T10:06:11.275Z,11.48
2023-01-13T10:08:41.217Z,11.37
2023-01-13T10:11:41.851Z,11.14
2023-01-13T10:14:32.122Z,11.41
2023-01-13T10:17:34.316Z,11.33
2023-01-13T10:20:06.967Z,11.24
2023-01-13T10:23:16.973Z,11.16
2023-01-13T10:26:01.958Z,11.17
2023-01-13T10:28:28.843Z,11.06
2023-01-13T10:30:55.736Z,11.08
2023-01-13T10:33:28.445Z,11.06
2023-01-13T10:36:04.390Z,10.95
2023-01-13T10:38:41.372Z,10.97
2023-01-13T10:41:13.670Z,10.91
2023-01-13T10:43:43.540Z,10.88
2023-01-13T10:46:15.974Z,10.87
2023-01-13T10:48:52.183Z,10.86
2023-01-13T10:51:23.416Z,10.94
2023-01-13T10:54:12.896Z,10.85
2023-01-13T10:56:45.284Z,10.92
2023-01-13T10:59:26.774Z,10.83
2023-01-13T11:02:24.870Z,10.90
2023-01-13T11:04:55.963Z,10.83
2023-01-13T11:07:41.821Z,10.85
2023-01-13T11:10:23.805Z,10.88
2023-01-13T11:13:14.571Z,10.93
2023-01-13T11:15:47.480Z,10.92
2023-01-13T11:18:40.441Z,10.80
2023-01-13T11:21:26.694Z,10.70
2023-01-13T11:24:13.993Z,10.55
2023-01-13T11:26:59.657Z,10.58
2023-01-13T11:29:57.797Z,10.50
2023-01-13T11:32:25.452Z,10.46
2023-01-13T11:35:00.482Z,10.38
2023-01-13T11:37:32.401Z,10.45
2023-01-13T11:40:34.925Z,10.38
2023-01-13T11:43:39.929Z,10.18
2023-01-13T11:46:09.874Z,10.12
2023-01-13T11:48:42.374Z,10.25
2023-01-13T11:51:26.131Z,10.15
2023-01-13T11:54:29.599Z,10.19
2023-01-13T11:57:51.422Z,10.13
2023-01-13T12:00:40.171Z,10.11
2023-01-13T12:03:35.495Z,10.10
2023-01-13T12:06:35.909Z,10.16
2023-01-13T12:09:40.004Z,10.00
2023-01-13T12:12:20.555Z,10.08
2023-01-13T12:15:30.934Z,10.01
2023-01-13T12:18:19.195Z,10.02
2023-01-13T12:21:07.385Z,10.05
2023-01-13T12:24:12.701Z,10.16
2023-01-13T12:26:49.080Z,10.19
2023-01-13T12:29:20.210Z,10.17
2023-01-13T12:31:49.275Z,10.01
2023-01-13T12:35:06.413Z,10.10
2023-01-13T12:38:10.250Z,10.13
2023-01-13T12:40:55.628Z,10.09
2023-01-13T12:43:42.763Z,10.06
2023-01-13T12:46:21.685Z,10.05
2023-01-13T12:48:55.316Z,9.95
2023-01-13T12:51:56.901Z,10.05
2023-01-13T12:54:43.491Z,10.05
2023-01-13T12:57:32.929Z,10.00
2023-01-13T12:59:59.586Z,10.11
2023-01-13T13:02:31.140Z,10.22
2023-01-13T13:05:15.614Z,10.10
2023-01-13T13:07:48.041Z,10.02
2023-01-13T13:10:24.563Z,10.00
2023-01-13T13:13:15.819Z,10.09
2023-01-13T13:15:43.782Z,10.09
2023-01-13T13:18:20.839Z,10.31
2023-01-13T13:21:09.253Z,10.25
2023-01-13T13:23:54.568Z,10.34
2023-01-13T13:26:38.114Z,10.28
2023-01-13T13:29:48.303Z,10.41
2023-01-13T13:32:40.888Z,10.43
2023-01-13T13:35:40.927Z,10.49
2023-01-13T13:38:54.477Z,10.57
2023-01-13T13:41:43.771Z,10.56
2023-01-13T13:44:35.809Z,10.57
2023-01-13T13:47:06.271Z,10.70
2023-01-13T13:49:46.541Z,10.74
2023-01-13T13:52:51.723Z,10.73
2023-01-13T13:55:23.739Z,10.71
2023-01-13T13:57:53.650Z,10.74
2023-01-13T14:00:32.027Z,10.82
2023-01-13T14:03:08.010Z,10.81
2023-01-13T14:05:36.791Z,10.84
2023-01-13T14:08:12.411Z,10.86
2023-01-13T14:10:41.344Z,10.90
2023-01-13T14:13:25.625Z,10.88
2023-01-13T14:16:02.063Z,10.93
2023-01-13T14:18:32.567Z,10.86
2023-01-13T14:21:05.627Z,10.87
2023-01-13T14:23:34.016Z,10.80
2023-01-13T14:26:09.869Z,10.82
2023-01-13T14:28:40.875Z,10.74
2023-01-13T14:31:09.702Z,10.81
2023-01-13T14:33:47.153Z,10.77
2023-01-13T14:36:35.783Z,10.83
2023-01-13T14:39:05.702Z,10.73
2023-01-13T14:41:46.987Z,10.61
2023-01-13T14:44:37.890Z,10.46
2023-01-13T14:47:25.158Z,10.39
2023-01-13T14:50:11.372Z,10.20
2023-01-13T14:52:56.794Z,10.29
2023-01-13T14:55:33.626Z,10.34
2023-01-13T14:58:24.972Z,10.22
2023-01-13T15:01:26.441Z,10.33
2023-01-13T15:03:53.431Z,10.21
2023-01-13T15:06:25.765Z,10.20
2023-01-13T15:08:53.018Z,10.14
2023-01-13T15:11:27.480Z,10.32
2023-01-13T15:14:01.307Z,10.29
2023-01-13T15:16:29.720Z,10.27
2023-01-13T15:18:57.871Z,10.25
2023-01-13T15:21:25.193Z,10.22
2023-01-13T15:23:52.278Z,10.34
2023-01-13T15:26:29.299Z,10.25
2023-01-13T15:28:58.391Z,10.11
2023-01-13T15:31:26.957Z,10.07
2023-01-13T15:33:54.464Z,10.14
2023-01-13T15:36:32.357Z,10.08
2023-01-13T15:39:01.246Z,10.19
2023-01-13T15:41:46.500Z,10.27
2023-01-13T15:44:35.063Z,10.33
2023-01-13T15:47:05.852Z,10.35
2023-01-13T15:49:38.161Z,10.21
2023-01-13T15:52:18.708Z,10.06
2023-01-13T15:54:45.735Z,10.11
2023-01-13T15:57:30.948Z,10.22
2023-01-13T16:00:05.843Z,9.84
2023-01-13T16:02:32.611Z,10.31
2023-01-13T16:04:59.387Z,10.19
2023-01-13T16:07:26.326Z,10.30
2023-01-13T16:09:53.282Z,10.16
2023-01-13T16:12:20.337Z,10.28
2023-01-13T16:14:47.131Z,10.28
2023-01-13T16:17:23.795Z,10.19
2023-01-13T16:19:51.460Z,10.25
2023-01-13T16:22:18.812Z,10.24
2023-01-13T16:24:45.633Z,10.05
2023-01-13T16:27:21.996Z,10.16
2023-01-13T16:29:50.428Z,10.13
2023-01-13T16:32:18.324Z,10.08
2023-01-13T16:34:45.253Z,10.11
2023-01-13T16:37:19.796Z,10.08
2023-01-13T16:39:47.268Z,9.74
2023-01-13T16:42:14.602Z,9.82
2023-01-13T16:44:41.726Z,9.90
2023-01-13T16:47:16.594Z,9.93
2023-01-13T16:49:43.727Z,9.94
2023-01-13T16:52:10.649Z,9.94
2023-01-13T16:54:37.531Z,9.90
2023-01-13T16:57:04.547Z,9.78
2023-01-13T16:59:31.403Z,9.72
2023-01-13T17:01:58.251Z,9.77
2023-01-13T17:04:25.209Z,9.74
2023-01-13T17:07:03.805Z,9.69
2023-01-13T17:09:30.907Z,9.74
2023-01-13T17:11:58.593Z,9.71
2023-01-13T17:14:26.206Z,9.70
2023-01-13T17:16:55.172Z,9.67
2023-01-13T17:19:23.772Z,9.64
2023-01-13T17:21:53.252Z,9.62
2023-01-13T17:24:20.156Z,9.59
2023-01-13T17:26:50.302Z,9.61
2023-01-13T17:29:25.056Z,9.57
2023-01-13T17:31:52.693Z,9.42
2023-01-13T17:34:20.993Z,9.47
2023-01-13T17:36:48.730Z,9.41
2023-01-13T17:39:22.161Z,9.44
2023-01-13T17:41:49.592Z,9.23
2023-01-13T17:44:18.951Z,9.34
2023-01-13T17:46:46.526Z,9.37
2023-01-13T17:49:19.465Z,9.27
2023-01-13T17:51:48.187Z,9.18
2023-01-13T17:54:15.918Z,9.28
2023-01-13T17:56:43.432Z,9.38
2023-01-13T17:59:12.894Z,9.23
2023-01-13T18:01:40.210Z,9.37
2023-01-13T18:04:09.822Z,9.35
2023-01-13T18:06:36.639Z,9.39
2023-01-13T18:09:03.497Z,9.55
2023-01-13T18:11:30.267Z,9.61
2023-01-13T18:13:57.393Z,9.43
2023-01-13T18:16:26.969Z,9.57
2023-01-13T18:19:17.517Z,9.42
2023-01-13T18:22:03.206Z,9.29
2023-01-13T18:24:48.396Z,9.26
2023-01-13T18:27:22.966Z,9.16
2023-01-13T18:29:57.925Z,9.19
2023-01-13T18:32:32.913Z,9.27
2023-01-13T18:35:06.193Z,9.23
2023-01-13T18:37:38.605Z,9.09
2023-01-13T18:40:07.949Z,9.05
2023-01-13T18:42:51.228Z,8.99
2023-01-13T18:45:30.444Z,9.02
2023-01-13T18:48:01.098Z,8.95
2023-01-13T18:50:28.545Z,8.87
2023-01-13T18:52:55.626Z,8.93
2023-01-13T18:55:23.334Z,8.93
2023-01-13T18:57:51.121Z,8.79
2023-01-13T19:00:20.857Z,8.73
2023-01-13T19:02:50.560Z,8.77
2023-01-13T19:05:17.729Z,8.77
2023-01-13T19:07:50.354Z,8.81
2023-01-13T19:10:18.662Z,8.71
2023-01-13T19:12:45.520Z,8.65
2023-01-13T19:15:12.481Z,8.64
2023-01-13T19:17:39.316Z,8.69
2023-01-13T19:20:07.207Z,8.77
2023-01-13T19:22:35.344Z,8.68
2023-01-13T19:25:03.636Z,8.62
2023-01-13T19:27:30.771Z,8.55
2023-01-13T19:30:00.175Z,8.75
2023-01-13T19:32:27.816Z,8.80
2023-01-13T19:34:58.989Z,8.81
2023-01-13T19:37:30.083Z,8.65
2023-01-13T19:39:59.096Z,8.80
2023-01-13T19:42:44.786Z,8.84
2023-01-13T19:45:29.311Z,8.71
2023-01-13T19:47:58.241Z,8.80
2023-01-13T19:50:25.461Z,8.60
2023-01-13T19:52:52.353Z,8.74
2023-01-13T19:55:19.713Z,8.67
2023-01-13T19:57:46.753Z,8.73
2023-01-13T20:00:18.257Z,8.50
2023-01-13T20:02:49.119Z,8.57
2023-01-13T20:05:21.055Z,8.43
2023-01-13T20:07:49.848Z,8.35
2023-01-13T20:10:21.352Z,8.26
2023-01-13T20:12:48.333Z,8.19
2023-01-13T20:15:15.333Z,8.18
2023-01-13T20:17:42.210Z,8.20
2023-01-13T20:20:10.772Z,8.08
2023-01-13T20:22:39.227Z,8.04
2023-01-13T20:25:07.130Z,8.15
2023-01-13T20:27:33.998Z,8.03
2023-01-13T20:30:00.862Z,8.01
2023-01-13T20:32:27.684Z,7.99
2023-01-13T20:34:54.493Z,8.05
2023-01-13T20:37:21.391Z,8.04
2023-01-13T20:39:48.364Z,7.92
2023-01-13T20:42:30.389Z,8.03
2023-01-13T20:44:59.522Z,8.14
2023-01-13T20:47:28.056Z,8.07
2023-01-13T20:49:54.945Z,8.15
2023-01-13T20:52:21.757Z,7.84
2023-01-13T20:54:48.700Z,8.07
2023-01-13T20:57:15.584Z,8.00
2023-01-13T20:59:42.447Z,8.14
2023-01-13T21:02:14.212Z,8.26
2023-01-13T21:04:41.427Z,8.19
2023-01-13T21:07:08.695Z,7.98
2023-01-13T21:09:36.375Z,8.06
2023-01-13T21:12:22.733Z,8.19
2023-01-13T21:15:07.905Z,8.34
2023-01-13T21:17:53.463Z,8.40
2023-01-13T21:20:20.479Z,8.57
2023-01-13T21:22:48.606Z,8.46
2023-01-13T21:25:17.114Z,8.41
2023-01-13T21:27:44.020Z,8.38
2023-01-13T21:30:15.250Z,8.24
2023-01-13T21:32:44.036Z,8.46
2023-01-13T21:35:11.698Z,8.31
2023-01-13T21:37:39.888Z,8.42
2023-01-13T21:40:10.356Z,8.46
2023-01-13T21:42:55.668Z,8.37
2023-01-13T21:45:41.464Z,8.29
2023-01-13T21:48:08.385Z,8.31
2023-01-13T21:50:38.002Z,8.35
2023-01-13T21:53:05.279Z,8.37
2023-01-13T21:55:32.787Z,8.39
2023-01-13T21:58:11.771Z,8.29
2023-01-13T22:00:41.515Z,8.32
2023-01-13T22:03:11.214Z,8.18
2023-01-13T22:05:38.524Z,8.10
2023-01-13T22:08:06.443Z,8.26
2023-01-13T22:10:34.295Z,8.25
2023-01-13T22:13:22.659Z,8.20
2023-01-13T22:15:49.878Z,8.39
2023-01-13T22:18:18.117Z,8.50
2023-01-13T22:20:45.510Z,8.36
2023-01-13T22:23:12.482Z,8.49
2023-01-13T22:25:39.464Z,8.67
2023-01-13T22:28:08.568Z,8.39
2023-01-13T22:30:35.405Z,8.39
2023-01-13T22:33:02.177Z,8.45
2023-01-13T22:35:29.017Z,8.54
2023-01-13T22:37:55.776Z,8.61
2023-01-13T22:40:22.551Z,8.66
2023-01-13T22:42:49.339Z,8.72
2023-01-13T22:45:16.331Z,8.70
2023-01-13T22:47:43.191Z,8.65
2023-01-13T22:50:12.404Z,8.75
2023-01-13T22:52:39.349Z,8.72
2023-01-13T22:55:06.975Z,8.69
2023-01-13T22:57:36.518Z,8.70
2023-01-13T23:00:14.862Z,8.69
2023-01-13T23:02:41.798Z,8.75
2023-01-13T23:05:08.865Z,8.75
2023-01-13T23:07:36.076Z,8.77
2023-01-13T23:10:04.132Z,8.81
2023-01-13T23:12:31.055Z,8.79
2023-01-13T23:14:57.920Z,8.59
2023-01-13T23:17:24.750Z,8.52
2023-01-13T23:19:51.638Z,8.35
2023-01-13T23:22:18.416Z,8.30
2023-01-13T23:24:45.952Z,8.40
2023-01-13T23:27:12.885Z,8.33
2023-01-13T23:29:39.703Z,8.31
2023-01-13T23:32:06.470Z,8.27
2023-01-13T23:34:33.285Z,8.36
2023-01-13T23:37:00.114Z,8.39
2023-01-13T23:39:26.981Z,8.44
2023-01-13T23:41:54.400Z,8.30
2023-01-13T23:44:21.150Z,8.50
2023-01-13T23:46:47.917Z,8.58
2023-01-13T23:49:14.800Z,8.49
2023-01-13T23:51:41.737Z,8.72
2023-01-13T23:54:08.531Z,8.68
2023-01-13T23:56:39.154Z,8.81
2023-01-13T23:59:06.461Z,8.82
